sensor_id;sensor_type;location;lat;lon;timestamp;pressure;altitude;pressure_sealevel;temperature;humidity
34983;BME280;21187;50.976;13.720;2022-10-17T00:01:56;98923.59;;;19.20;53.42
34983;BME280;21187;50.976;13.720;2022-10-17T00:06:58;98920.47;;;19.18;53.74
34983;BME280;21187;50.976;13.720;2022-10-17T00:12:00;98924.78;;;19.22;53.56
34983;BME280;21187;50.976;13.720;2022-10-17T00:17:03;98926.75;;;19.22;53.77
34983;BME280;21187;50.976;13.720;2022-10-17T00:22:05;98914.94;;;19.21;53.61
34983;BME280;21187;50.976;13.720;2022-10-17T00:27:07;98907.09;;;19.09;53.92
34983;BME280;21187;50.976;13.720;2022-10-17T00:32:09;98918.47;;;19.07;54.01
34983;BME280;21187;50.976;13.720;2022-10-17T00:37:11;98916.50;;;19.08;54.21
34983;BME280;21187;50.976;13.720;2022-10-17T00:42:13;98921.59;;;19.02;54.02
34983;BME280;21187;50.976;13.720;2022-10-17T00:47:18;98907.84;;;18.95;54.07
34983;BME280;21187;50.976;13.720;2022-10-17T00:52:24;98909.41;;;18.89;54.23
34983;BME280;21187;50.976;13.720;2022-10-17T00:57:29;98910.13;;;18.78;54.27
34983;BME280;21187;50.976;13.720;2022-10-17T01:02:32;98919.47;;;18.67;54.56
34983;BME280;21187;50.976;13.720;2022-10-17T01:07:34;98930.81;;;18.58;54.48
34983;BME280;21187;50.976;13.720;2022-10-17T01:12:59;98931.91;;;18.42;54.92
34983;BME280;21187;50.976;13.720;2022-10-17T01:18:29;98935.34;;;18.25;55.33
34983;BME280;21187;50.976;13.720;2022-10-17T01:23:55;98922.38;;;18.15;55.90
34983;BME280;21187;50.976;13.720;2022-10-17T01:34:31;98916.59;;;18.31;55.96
34983;BME280;21187;50.976;13.720;2022-10-17T01:39:48;98920.06;;;18.27;55.42
34983;BME280;21187;50.976;13.720;2022-10-17T01:45:09;98920.81;;;18.21;55.42
34983;BME280;21187;50.976;13.720;2022-10-17T01:50:21;98921.16;;;18.08;55.35
34983;BME280;21187;50.976;13.720;2022-10-17T01:55:29;98928.53;;;18.01;55.60
34983;BME280;21187;50.976;13.720;2022-10-17T02:00:34;98924.97;;;17.96;55.46
34983;BME280;21187;50.976;13.720;2022-10-17T02:05:40;98917.47;;;17.90;55.59
34983;BME280;21187;50.976;13.720;2022-10-17T02:10:46;98914.28;;;17.84;55.59
34983;BME280;21187;50.976;13.720;2022-10-17T02:21:44;98901.75;;;17.83;55.78
34983;BME280;21187;50.976;13.720;2022-10-17T02:26:55;98892.38;;;17.88;55.95
34983;BME280;21187;50.976;13.720;2022-10-17T02:32:07;98894.38;;;17.91;55.84
34983;BME280;21187;50.976;13.720;2022-10-17T02:37:14;98897.13;;;17.91;55.88
34983;BME280;21187;50.976;13.720;2022-10-17T02:42:19;98901.41;;;17.92;55.92
34983;BME280;21187;50.976;13.720;2022-10-17T02:47:35;98897.91;;;17.91;55.93
34983;BME280;21187;50.976;13.720;2022-10-17T02:53:07;98901.78;;;17.87;55.59
34983;BME280;21187;50.976;13.720;2022-10-17T02:58:17;98906.00;;;17.77;55.69
34983;BME280;21187;50.976;13.720;2022-10-17T03:03:24;98915.66;;;17.60;56.00
34983;BME280;21187;50.976;13.720;2022-10-17T03:08:27;98919.50;;;17.52;55.92
34983;BME280;21187;50.976;13.720;2022-10-17T03:13:30;98916.31;;;17.42;56.36
34983;BME280;21187;50.976;13.720;2022-10-17T03:18:35;98922.47;;;17.32;56.69
34983;BME280;21187;50.976;13.720;2022-10-17T03:23:38;98916.13;;;17.24;56.91
34983;BME280;21187;50.976;13.720;2022-10-17T03:28:41;98918.03;;;17.20;57.08
34983;BME280;21187;50.976;13.720;2022-10-17T03:33:43;98925.53;;;17.27;57.20
34983;BME280;21187;50.976;13.720;2022-10-17T03:38:45;98933.47;;;17.36;57.01
34983;BME280;21187;50.976;13.720;2022-10-17T03:43:47;98931.91;;;17.38;56.83
34983;BME280;21187;50.976;13.720;2022-10-17T03:48:49;98939.69;;;17.36;56.85
34983;BME280;21187;50.976;13.720;2022-10-17T03:53:51;98933.47;;;17.36;56.74
34983;BME280;21187;50.976;13.720;2022-10-17T03:58:54;98935.03;;;17.40;56.68
34983;BME280;21187;50.976;13.720;2022-10-17T04:03:56;98946.81;;;17.44;56.78
34983;BME280;21187;50.976;13.720;2022-10-17T04:09:03;98933.97;;;17.49;56.63
34983;BME280;21187;50.976;13.720;2022-10-17T04:14:16;98946.09;;;17.48;56.82
34983;BME280;21187;50.976;13.720;2022-10-17T04:19:18;98949.97;;;17.46;57.11
34983;BME280;21187;50.976;13.720;2022-10-17T04:24:21;98960.59;;;17.52;57.00
34983;BME280;21187;50.976;13.720;2022-10-17T04:29:29;98959.81;;;17.55;56.75
34983;BME280;21187;50.976;13.720;2022-10-17T04:34:51;98971.22;;;17.57;56.68
34983;BME280;21187;50.976;13.720;2022-10-17T04:39:55;98957.91;;;17.59;56.77
34983;BME280;21187;50.976;13.720;2022-10-17T04:44:57;98975.88;;;17.53;56.77
34983;BME280;21187;50.976;13.720;2022-10-17T04:50:00;98968.81;;;17.52;57.01
34983;BME280;21187;50.976;13.720;2022-10-17T04:55:05;98969.97;;;17.51;56.92
34983;BME280;21187;50.976;13.720;2022-10-17T05:00:09;98974.25;;;17.48;57.00
34983;BME280;21187;50.976;13.720;2022-10-17T05:05:25;98972.59;;;17.40;57.35
34983;BME280;21187;50.976;13.720;2022-10-17T05:10:28;98982.72;;;17.36;57.46
34983;BME280;21187;50.976;13.720;2022-10-17T05:15:32;98982.69;;;17.32;57.58
34983;BME280;21187;50.976;13.720;2022-10-17T05:20:35;98977.97;;;17.29;57.66
34983;BME280;21187;50.976;13.720;2022-10-17T05:25:37;98995.56;;;17.28;57.73
34983;BME280;21187;50.976;13.720;2022-10-17T05:30:39;98994.41;;;17.29;57.73
34983;BME280;21187;50.976;13.720;2022-10-17T05:35:42;98994.41;;;17.29;57.75
34983;BME280;21187;50.976;13.720;2022-10-17T05:40:44;99003.34;;;17.26;57.91
34983;BME280;21187;50.976;13.720;2022-10-17T05:45:46;99015.88;;;17.27;57.87
34983;BME280;21187;50.976;13.720;2022-10-17T05:50:58;99012.44;;;17.34;57.89
34983;BME280;21187;50.976;13.720;2022-10-17T05:56:02;99015.97;;;17.34;57.98
34983;BME280;21187;50.976;13.720;2022-10-17T06:01:06;99030.47;;;17.38;57.81
34983;BME280;21187;50.976;13.720;2022-10-17T06:06:14;99031.34;;;17.46;57.99
34983;BME280;21187;50.976;13.720;2022-10-17T06:11:18;99029.50;;;17.57;57.93
34983;BME280;21187;50.976;13.720;2022-10-17T06:16:20;99027.63;;;17.65;58.22
34983;BME280;21187;50.976;13.720;2022-10-17T06:21:24;99024.19;;;17.75;58.30
34983;BME280;21187;50.976;13.720;2022-10-17T06:26:33;99036.41;;;17.82;58.30
34983;BME280;21187;50.976;13.720;2022-10-17T06:31:36;99042.72;;;17.89;58.43
34983;BME280;21187;50.976;13.720;2022-10-17T06:36:38;99050.66;;;17.98;58.34
34983;BME280;21187;50.976;13.720;2022-10-17T06:41:42;99059.34;;;18.07;58.51
34983;BME280;21187;50.976;13.720;2022-10-17T06:46:45;99054.41;;;18.24;58.42
34983;BME280;21187;50.976;13.720;2022-10-17T06:51:50;99059.25;;;18.41;58.45
34983;BME280;21187;50.976;13.720;2022-10-17T06:56:56;99058.22;;;18.64;58.36
34983;BME280;21187;50.976;13.720;2022-10-17T07:02:17;99074.09;;;18.96;58.23
34983;BME280;21187;50.976;13.720;2022-10-17T07:07:19;99076.63;;;19.30;57.78
34983;BME280;21187;50.976;13.720;2022-10-17T07:12:21;99083.38;;;19.58;57.51
34983;BME280;21187;50.976;13.720;2022-10-17T07:17:24;99078.41;;;19.89;57.39
34983;BME280;21187;50.976;13.720;2022-10-17T07:22:26;99075.66;;;20.10;57.03
34983;BME280;21187;50.976;13.720;2022-10-17T07:27:31;99085.88;;;20.35;56.83
34983;BME280;21187;50.976;13.720;2022-10-17T07:32:33;99084.28;;;20.56;56.73
34983;BME280;21187;50.976;13.720;2022-10-17T07:37:36;99085.47;;;20.69;56.43
34983;BME280;21187;50.976;13.720;2022-10-17T07:42:39;99092.53;;;20.92;56.31
34983;BME280;21187;50.976;13.720;2022-10-17T07:47:41;99088.53;;;21.07;56.21
34983;BME280;21187;50.976;13.720;2022-10-17T07:52:44;99090.47;;;21.25;55.88
34983;BME280;21187;50.976;13.720;2022-10-17T07:57:46;99092.31;;;21.50;55.66
34983;BME280;21187;50.976;13.720;2022-10-17T08:02:48;99091.41;;;21.74;55.48
34983;BME280;21187;50.976;13.720;2022-10-17T08:07:50;99095.19;;;22.02;55.08
34983;BME280;21187;50.976;13.720;2022-10-17T08:12:54;99087.50;;;22.28;54.73
34983;BME280;21187;50.976;13.720;2022-10-17T08:17:57;99084.16;;;22.55;54.49
34983;BME280;21187;50.976;13.720;2022-10-17T08:22:59;99093.78;;;22.77;54.02
34983;BME280;21187;50.976;13.720;2022-10-17T08:28:00;99099.16;;;22.92;53.89
34983;BME280;21187;50.976;13.720;2022-10-17T08:33:02;99098.22;;;23.09;53.38
34983;BME280;21187;50.976;13.720;2022-10-17T08:38:04;99105.94;;;23.25;53.18
34983;BME280;21187;50.976;13.720;2022-10-17T08:48:39;99089.78;;;23.55;52.55
34983;BME280;21187;50.976;13.720;2022-10-17T08:54:04;99089.59;;;23.69;52.23
34983;BME280;21187;50.976;13.720;2022-10-17T08:59:14;99090.03;;;23.95;51.97
34983;BME280;21187;50.976;13.720;2022-10-17T09:09:57;99069.72;;;24.29;50.95
34983;BME280;21187;50.976;13.720;2022-10-17T09:20:42;99085.31;;;24.43;50.68
34983;BME280;21187;50.976;13.720;2022-10-17T09:25:49;99094.41;;;24.67;50.36
34983;BME280;21187;50.976;13.720;2022-10-17T09:31:23;99089.22;;;24.93;50.18
34983;BME280;21187;50.976;13.720;2022-10-17T09:36:32;99087.38;;;25.06;49.78
34983;BME280;21187;50.976;13.720;2022-10-17T09:41:38;99087.22;;;25.14;49.80
34983;BME280;21187;50.976;13.720;2022-10-17T09:52:26;99101.28;;;25.23;49.05
34983;BME280;21187;50.976;13.720;2022-10-17T09:57:56;99102.16;;;25.40;48.75
34983;BME280;21187;50.976;13.720;2022-10-17T10:03:25;99104.81;;;25.47;48.30
34983;BME280;21187;50.976;13.720;2022-10-17T10:08:33;99107.84;;;25.53;47.92
34983;BME280;21187;50.976;13.720;2022-10-17T10:13:36;99103.66;;;25.45;47.49
34983;BME280;21187;50.976;13.720;2022-10-17T10:18:38;99102.84;;;25.24;47.64
34983;BME280;21187;50.976;13.720;2022-10-17T10:23:42;99098.72;;;25.32;47.70
34983;BME280;21187;50.976;13.720;2022-10-17T10:28:52;99104.06;;;25.43;47.35
34983;BME280;21187;50.976;13.720;2022-10-17T10:33:55;99103.88;;;25.54;47.46
34983;BME280;21187;50.976;13.720;2022-10-17T10:38:58;99105.81;;;25.73;46.76
34983;BME280;21187;50.976;13.720;2022-10-17T10:44:05;99115.72;;;25.91;46.75
34983;BME280;21187;50.976;13.720;2022-10-17T10:49:28;99088.47;;;26.22;46.07
34983;BME280;21187;50.976;13.720;2022-10-17T10:54:38;99086.09;;;26.37;45.83
34983;BME280;21187;50.976;13.720;2022-10-17T11:05:29;99089.91;;;26.77;45.18
34983;BME280;21187;50.976;13.720;2022-10-17T11:11:01;99083.75;;;26.98;44.90
34983;BME280;21187;50.976;13.720;2022-10-17T11:21:27;99081.81;;;27.24;44.05
34983;BME280;21187;50.976;13.720;2022-10-17T11:26:34;99076.50;;;27.30;43.50
34983;BME280;21187;50.976;13.720;2022-10-17T11:31:43;99076.50;;;27.30;43.73
34983;BME280;21187;50.976;13.720;2022-10-17T11:36:51;99071.59;;;27.34;43.47
34983;BME280;21187;50.976;13.720;2022-10-17T11:41:58;99063.59;;;27.36;43.24
34983;BME280;21187;50.976;13.720;2022-10-17T11:47:43;99061.44;;;27.57;43.36
34983;BME280;21187;50.976;13.720;2022-10-17T12:09:31;99035.13;;;28.10;42.08
34983;BME280;21187;50.976;13.720;2022-10-17T12:19:39;99029.31;;;28.30;41.47
34983;BME280;21187;50.976;13.720;2022-10-17T12:24:43;99003.44;;;28.29;41.10
34983;BME280;21187;50.976;13.720;2022-10-17T12:29:45;99024.97;;;28.29;41.07
34983;BME280;21187;50.976;13.720;2022-10-17T12:34:53;99008.94;;;28.20;40.46
34983;BME280;21187;50.976;13.720;2022-10-17T12:39:55;99007.97;;;28.14;40.23
34983;BME280;21187;50.976;13.720;2022-10-17T12:44:57;98995.91;;;28.17;40.14
34983;BME280;21187;50.976;13.720;2022-10-17T12:49:59;98992.97;;;28.33;39.87
34983;BME280;21187;50.976;13.720;2022-10-17T13:00:21;98981.31;;;28.48;39.32
34983;BME280;21187;50.976;13.720;2022-10-17T13:05:28;98981.47;;;28.66;39.45
34983;BME280;21187;50.976;13.720;2022-10-17T13:10:35;98970.84;;;28.74;38.69
34983;BME280;21187;50.976;13.720;2022-10-17T13:15:50;98983.69;;;28.71;38.66
34983;BME280;21187;50.976;13.720;2022-10-17T13:21:05;98983.94;;;28.64;38.71
34983;BME280;21187;50.976;13.720;2022-10-17T13:26:18;98984.13;;;29.46;37.72
34983;BME280;21187;50.976;13.720;2022-10-17T13:31:33;98977.13;;;31.45;34.66
34983;BME280;21187;50.976;13.720;2022-10-17T13:36:35;98982.63;;;33.06;32.40
34983;BME280;21187;50.976;13.720;2022-10-17T13:41:38;98971.19;;;33.75;31.11
34983;BME280;21187;50.976;13.720;2022-10-17T13:46:42;98973.66;;;34.29;30.61
34983;BME280;21187;50.976;13.720;2022-10-17T13:51:46;98973.53;;;34.64;29.99
34983;BME280;21187;50.976;13.720;2022-10-17T13:56:55;98968.34;;;34.83;29.77
34983;BME280;21187;50.976;13.720;2022-10-17T14:01:59;98987.56;;;34.85;29.34
34983;BME280;21187;50.976;13.720;2022-10-17T14:07:02;98990.50;;;34.76;29.81
34983;BME280;21187;50.976;13.720;2022-10-17T14:12:09;98981.00;;;33.64;29.93
34983;BME280;21187;50.976;13.720;2022-10-17T14:17:23;98988.03;;;32.25;31.18
34983;BME280;21187;50.976;13.720;2022-10-17T14:22:27;98992.69;;;30.66;32.35
34983;BME280;21187;50.976;13.720;2022-10-17T14:27:50;99001.75;;;29.43;33.68
34983;BME280;21187;50.976;13.720;2022-10-17T14:32:58;98996.31;;;28.63;34.75
34983;BME280;21187;50.976;13.720;2022-10-17T14:38:03;98993.25;;;28.00;35.34
34983;BME280;21187;50.976;13.720;2022-10-17T14:43:17;98998.63;;;27.30;36.04
34983;BME280;21187;50.976;13.720;2022-10-17T14:48:22;98993.34;;;26.64;37.05
34983;BME280;21187;50.976;13.720;2022-10-17T14:53:27;99000.47;;;26.03;37.71
34983;BME280;21187;50.976;13.720;2022-10-17T14:58:33;99009.38;;;25.61;38.56
34983;BME280;21187;50.976;13.720;2022-10-17T15:03:35;99022.19;;;25.55;38.31
34983;BME280;21187;50.976;13.720;2022-10-17T15:08:36;99027.41;;;25.53;38.50
34983;BME280;21187;50.976;13.720;2022-10-17T15:13:38;99023.94;;;25.49;38.36
34983;BME280;21187;50.976;13.720;2022-10-17T15:18:46;99037.44;;;25.47;38.50
34983;BME280;21187;50.976;13.720;2022-10-17T15:23:49;99036.69;;;25.46;38.88
34983;BME280;21187;50.976;13.720;2022-10-17T15:28:52;99046.78;;;25.36;38.96
34983;BME280;21187;50.976;13.720;2022-10-17T15:33:54;99062.97;;;25.18;39.04
34983;BME280;21187;50.976;13.720;2022-10-17T15:38:58;99043.09;;;25.03;39.53
34983;BME280;21187;50.976;13.720;2022-10-17T15:44:00;99053.16;;;24.73;40.20
34983;BME280;21187;50.976;13.720;2022-10-17T15:49:06;99049.09;;;24.57;40.34
34983;BME280;21187;50.976;13.720;2022-10-17T15:54:10;99052.22;;;24.36;40.36
34983;BME280;21187;50.976;13.720;2022-10-17T15:59:14;99043.81;;;24.19;40.85
34983;BME280;21187;50.976;13.720;2022-10-17T16:04:18;99054.53;;;23.90;41.40
34983;BME280;21187;50.976;13.720;2022-10-17T16:09:20;99059.97;;;23.66;41.42
34983;BME280;21187;50.976;13.720;2022-10-17T16:14:22;99054.69;;;23.52;41.80
34983;BME280;21187;50.976;13.720;2022-10-17T16:19:24;99042.59;;;23.38;41.65
34983;BME280;21187;50.976;13.720;2022-10-17T16:24:30;99057.25;;;23.35;42.06
34983;BME280;21187;50.976;13.720;2022-10-17T16:29:32;99071.91;;;23.32;41.98
34983;BME280;21187;50.976;13.720;2022-10-17T16:34:34;99078.63;;;23.31;42.21
34983;BME280;21187;50.976;13.720;2022-10-17T16:39:36;99071.97;;;23.25;42.10
34983;BME280;21187;50.976;13.720;2022-10-17T16:44:38;99071.34;;;23.14;42.12
34983;BME280;21187;50.976;13.720;2022-10-17T16:49:40;99080.13;;;23.01;42.47
34983;BME280;21187;50.976;13.720;2022-10-17T16:54:45;99079.47;;;22.90;42.63
34983;BME280;21187;50.976;13.720;2022-10-17T16:59:47;99072.81;;;22.84;42.79
34983;BME280;21187;50.976;13.720;2022-10-17T17:04:49;99076.50;;;22.70;42.89
34983;BME280;21187;50.976;13.720;2022-10-17T17:09:53;99072.25;;;22.62;43.20
34983;BME280;21187;50.976;13.720;2022-10-17T17:14:56;99081.38;;;22.55;43.17
34983;BME280;21187;50.976;13.720;2022-10-17T17:19:58;99081.81;;;22.50;43.26
34983;BME280;21187;50.976;13.720;2022-10-17T17:25:00;99091.75;;;22.43;43.38
34983;BME280;21187;50.976;13.720;2022-10-17T17:30:02;99088.28;;;22.36;43.31
34983;BME280;21187;50.976;13.720;2022-10-17T17:35:04;99085.22;;;22.16;43.96
34983;BME280;21187;50.976;13.720;2022-10-17T17:40:06;99086.94;;;21.99;44.04
34983;BME280;21187;50.976;13.720;2022-10-17T17:45:09;99094.19;;;21.74;44.59
34983;BME280;21187;50.976;13.720;2022-10-17T17:50:11;99100.16;;;21.62;44.87
34983;BME280;21187;50.976;13.720;2022-10-17T17:55:13;99101.03;;;21.37;45.46
34983;BME280;21187;50.976;13.720;2022-10-17T18:00:15;99105.78;;;21.26;45.70
34983;BME280;21187;50.976;13.720;2022-10-17T18:05:17;99105.84;;;21.11;45.98
34983;BME280;21187;50.976;13.720;2022-10-17T18:10:19;99103.50;;;20.99;46.19
34983;BME280;21187;50.976;13.720;2022-10-17T18:15:21;99096.81;;;20.93;46.32
34983;BME280;21187;50.976;13.720;2022-10-17T18:20:22;99098.81;;;20.96;46.36
34983;BME280;21187;50.976;13.720;2022-10-17T18:25:25;99095.25;;;20.99;46.23
34983;BME280;21187;50.976;13.720;2022-10-17T18:30:27;99101.16;;;20.98;46.14
34983;BME280;21187;50.976;13.720;2022-10-17T18:35:34;99111.41;;;20.90;46.39
34983;BME280;21187;50.976;13.720;2022-10-17T18:40:36;99109.06;;;20.77;46.66
34983;BME280;21187;50.976;13.720;2022-10-17T18:45:38;99098.81;;;20.64;46.97
34983;BME280;21187;50.976;13.720;2022-10-17T18:50:40;99099.63;;;20.57;47.22
34983;BME280;21187;50.976;13.720;2022-10-17T18:55:42;99098.44;;;20.51;47.54
34983;BME280;21187;50.976;13.720;2022-10-17T19:00:44;99098.84;;;20.53;47.34
34983;BME280;21187;50.976;13.720;2022-10-17T19:05:46;99097.66;;;20.50;47.37
34983;BME280;21187;50.976;13.720;2022-10-17T19:10:48;99097.66;;;20.54;47.60
34983;BME280;21187;50.976;13.720;2022-10-17T19:15:51;99100.03;;;20.59;47.32
34983;BME280;21187;50.976;13.720;2022-10-17T19:20:53;99095.66;;;20.65;47.23
34983;BME280;21187;50.976;13.720;2022-10-17T19:26:09;99092.56;;;20.74;47.19
34983;BME280;21187;50.976;13.720;2022-10-17T19:31:12;99093.72;;;20.80;47.04
34983;BME280;21187;50.976;13.720;2022-10-17T19:36:20;99098.06;;;20.77;47.14
34983;BME280;21187;50.976;13.720;2022-10-17T19:41:22;99109.06;;;20.77;47.22
34983;BME280;21187;50.976;13.720;2022-10-17T19:46:26;99095.72;;;20.72;47.27
34983;BME280;21187;50.976;13.720;2022-10-17T19:51:29;99107.13;;;20.71;47.51
34983;BME280;21187;50.976;13.720;2022-10-17T19:56:32;99119.31;;;20.70;47.38
34983;BME280;21187;50.976;13.720;2022-10-17T20:01:39;99123.19;;;20.65;47.41
34983;BME280;21187;50.976;13.720;2022-10-17T20:06:41;99126.34;;;20.67;47.29
34983;BME280;21187;50.976;13.720;2022-10-17T20:11:43;99127.53;;;20.66;47.53
34983;BME280;21187;50.976;13.720;2022-10-17T20:16:50;99131.06;;;20.56;47.64
34983;BME280;21187;50.976;13.720;2022-10-17T20:21:52;99140.53;;;20.40;47.94
34983;BME280;21187;50.976;13.720;2022-10-17T20:26:54;99148.38;;;20.31;47.75
34983;BME280;21187;50.976;13.720;2022-10-17T20:31:57;99160.91;;;20.18;47.96
34983;BME280;21187;50.976;13.720;2022-10-17T20:36:59;99157.75;;;20.01;48.78
34983;BME280;21187;50.976;13.720;2022-10-17T20:42:02;99153.78;;;19.88;48.93
34983;BME280;21187;50.976;13.720;2022-10-17T20:47:04;99153.72;;;19.81;49.14
34983;BME280;21187;50.976;13.720;2022-10-17T20:52:16;99165.53;;;19.85;49.31
34983;BME280;21187;50.976;13.720;2022-10-17T20:57:18;99169.47;;;19.84;49.06
34983;BME280;21187;50.976;13.720;2022-10-17T21:02:20;99163.16;;;19.79;49.18
34983;BME280;21187;50.976;13.720;2022-10-17T21:07:22;99163.97;;;19.84;49.48
34983;BME280;21187;50.976;13.720;2022-10-17T21:12:25;99160.84;;;19.89;49.24
34983;BME280;21187;50.976;13.720;2022-10-17T21:17:43;99149.88;;;19.89;49.16
34983;BME280;21187;50.976;13.720;2022-10-17T21:22:45;99157.31;;;19.88;49.22
34983;BME280;21187;50.976;13.720;2022-10-17T21:27:51;99145.09;;;19.78;49.64
34983;BME280;21187;50.976;13.720;2022-10-17T21:32:54;99145.06;;;19.71;49.75
34983;BME280;21187;50.976;13.720;2022-10-17T21:37:56;99148.16;;;19.66;49.71
34983;BME280;21187;50.976;13.720;2022-10-17T21:42:58;99140.28;;;19.54;49.84
34983;BME280;21187;50.976;13.720;2022-10-17T21:48:00;99147.28;;;19.40;49.96
34983;BME280;21187;50.976;13.720;2022-10-17T21:53:13;99148.03;;;19.30;50.40
34983;BME280;21187;50.976;13.720;2022-10-17T21:58:15;99142.50;;;19.23;50.76
34983;BME280;21187;50.976;13.720;2022-10-17T22:03:17;99144.88;;;19.28;50.75
34983;BME280;21187;50.976;13.720;2022-10-17T22:08:18;99146.06;;;19.31;50.61
34983;BME280;21187;50.976;13.720;2022-10-17T22:13:20;99154.69;;;19.29;50.63
34983;BME280;21187;50.976;13.720;2022-10-17T22:18:22;99159.38;;;19.25;50.52
34983;BME280;21187;50.976;13.720;2022-10-17T22:23:24;99166.06;;;19.27;50.62
34983;BME280;21187;50.976;13.720;2022-10-17T22:28:26;99165.63;;;19.25;50.66
34983;BME280;21187;50.976;13.720;2022-10-17T22:33:31;99159.72;;;19.20;50.73
34983;BME280;21187;50.976;13.720;2022-10-17T22:38:33;99167.59;;;19.18;50.74
34983;BME280;21187;50.976;13.720;2022-10-17T22:43:35;99178.16;;;19.16;50.72
34983;BME280;21187;50.976;13.720;2022-10-17T22:48:37;99165.91;;;19.02;50.84
34983;BME280;21187;50.976;13.720;2022-10-17T22:53:39;99167.28;;;18.82;51.68
34983;BME280;21187;50.976;13.720;2022-10-17T22:58:41;99168.97;;;18.93;53.17
34983;BME280;21187;50.976;13.720;2022-10-17T23:03:43;99169.19;;;19.26;53.27
34983;BME280;21187;50.976;13.720;2022-10-17T23:08:45;99167.78;;;19.57;53.44
34983;BME280;21187;50.976;13.720;2022-10-17T23:13:47;99165.53;;;19.81;53.21
34983;BME280;21187;50.976;13.720;2022-10-17T23:18:49;99172.28;;;19.98;52.55
34983;BME280;21187;50.976;13.720;2022-10-17T23:23:51;99166.28;;;19.74;53.27
34983;BME280;21187;50.976;13.720;2022-10-17T23:28:53;99160.09;;;20.03;52.29
34983;BME280;21187;50.976;13.720;2022-10-17T23:33:55;99164.41;;;20.00;52.28
34983;BME280;21187;50.976;13.720;2022-10-17T23:38:57;99171.09;;;19.95;52.11
34983;BME280;21187;50.976;13.720;2022-10-17T23:43:59;99157.28;;;19.85;52.22
34983;BME280;21187;50.976;13.720;2022-10-17T23:49:01;99161.56;;;19.78;52.31
34983;BME280;21187;50.976;13.720;2022-10-17T23:54:02;99151.34;;;19.72;52.34
34983;BME280;21187;50.976;13.720;2022-10-17T23:59:05;99158.78;;;19.64;52.27
